Weather reports worldwide

Advertisment
Chillingham Barns, United Kingdom (99196): temperature & dewpoint: 11.08.2017 08:00:00 - 17.08.2017 08:00:00 (BST)Chillingham Barns, United Kingdom (99196): visibility: 11.08.2017 08:00:00 - 17.08.2017 08:00:00 (BST)Chillingham Barns, United Kingdom (99196): precipitation: 11.08.2017 08:00:00 - 17.08.2017 08:00:00 (BST)
Date & Time tt [°C] td [°C] vv [km] rr [mm]
17.08.2017 08:00:00 15,2 12,1 - 0,0
17.08.2017 07:00:00 14,5 12,0 - 0,0
17.08.2017 06:00:00 15,5 12,9 - 0,0
17.08.2017 05:00:00 15,6 13,2 - 0,0
17.08.2017 04:00:00 15,8 13,2 - 0,0
17.08.2017 03:00:00 16,2 13,5 - 0,0
17.08.2017 02:00:00 16,0 13,7 - 0,0
17.08.2017 01:00:00 16,0 13,5 - 0,0
17.08.2017 00:00:00 15,8 13,4 - 0,0
16.08.2017 23:00:00 15,3 13,3 - 0,0
16.08.2017 22:00:00 14,9 13,5 - 0,2
16.08.2017 21:00:00 17,0 11,8 - 0,0
16.08.2017 20:00:00 17,6 11,2 - 0,0
16.08.2017 19:00:00 17,8 11,0 - 0,0
16.08.2017 18:00:00 18,4 11,8 - 0,0
16.08.2017 17:00:00 18,0 10,1 - 0,0
16.08.2017 16:00:00 18,4 10,0 - 0,0
16.08.2017 15:00:00 18,7 10,6 - 0,0
16.08.2017 14:00:00 18,3 9,6 - 0,0
16.08.2017 13:00:00 19,5 10,7 - 0,0
16.08.2017 12:00:00 19,2 10,6 - 0,0
16.08.2017 11:00:00 18,1 12,1 - 0,0
16.08.2017 10:00:00 16,4 12,7 17 0,0
16.08.2017 09:00:00 14,2 11,7 - 0,0
16.08.2017 08:00:00 13,6 11,8 - 0,0
16.08.2017 07:00:00 12,1 10,6 - 0,0
16.08.2017 06:00:00 11,8 10,4 - 0,0
16.08.2017 05:00:00 10,4 9,9 - 0,0
16.08.2017 04:00:00 11,1 10,5 - 0,0
16.08.2017 03:00:00 11,2 10,5 - 0,0
16.08.2017 02:00:00 11,6 10,5 - 0,0
16.08.2017 01:00:00 10,8 9,8 - 0,0
16.08.2017 00:00:00 11,8 10,0 - 0,0
15.08.2017 23:00:00 12,1 9,4 - 0,0
15.08.2017 22:00:00 13,7 9,8 - 0,0
15.08.2017 21:00:00 13,9 10,0 - 0,0
15.08.2017 20:00:00 15,2 10,6 - 0,0
15.08.2017 19:00:00 16,5 11,3 - 0,0
15.08.2017 18:00:00 17,7 10,7 - 0,0
15.08.2017 17:00:00 16,6 10,5 - 0,0
15.08.2017 16:00:00 16,5 10,3 - 0,0
15.08.2017 15:00:00 19,5 12,1 - 0,0
15.08.2017 14:00:00 18,6 11,4 - 0,0
15.08.2017 13:00:00 18,5 13,0 - 0,0
15.08.2017 12:00:00 17,9 12,6 - 0,0
15.08.2017 11:00:00 16,7 12,6 - 0,0
15.08.2017 10:00:00 17,8 12,8 10 0,0
15.08.2017 09:00:00 15,7 13,1 - 0,0
15.08.2017 08:00:00 15,2 14,3 - 0,0
15.08.2017 07:00:00 12,3 11,8 - 0,0
15.08.2017 06:00:00 12,5 12,1 - 0,0
15.08.2017 05:00:00 13,4 13,2 - 0,4
15.08.2017 04:00:00 13,9 13,6 - 0,6
15.08.2017 03:00:00 14,5 14,4 - 3,4
15.08.2017 02:00:00 14,4 14,4 - 3,6
15.08.2017 01:00:00 14,7 14,3 - 1,2
15.08.2017 00:00:00 14,8 14,3 - 2,0
14.08.2017 23:00:00 16,4 13,2 - 0,0
14.08.2017 22:00:00 16,3 13,4 10 0,0
14.08.2017 21:00:00 16,4 13,4 - 0,0
14.08.2017 20:00:00 17,2 13,9 - 0,0
14.08.2017 19:00:00 18,0 13,9 - 0,0
14.08.2017 18:00:00 17,4 13,9 - 0,0
14.08.2017 17:00:00 18,3 13,1 - 0,0
14.08.2017 16:00:00 19,0 13,4 - 0,0
14.08.2017 15:00:00 18,1 12,4 - 0,0
14.08.2017 14:00:00 17,4 12,2 - 0,0
14.08.2017 13:00:00 16,4 11,8 - 0,0
14.08.2017 12:00:00 15,3 12,1 - 0,0
14.08.2017 11:00:00 14,9 12,1 - 0,0
14.08.2017 10:00:00 13,4 11,6 0,5 0,2
14.08.2017 09:00:00 12,9 11,4 - 0,0
14.08.2017 08:00:00 12,7 10,5 - 0,0
14.08.2017 07:00:00 12,2 9,9 - 0,0
14.08.2017 06:00:00 11,9 9,6 - 0,0
14.08.2017 05:00:00 12,2 9,3 - 0,0
14.08.2017 04:00:00 11,7 9,5 - 0,0
14.08.2017 03:00:00 11,8 9,6 - 0,0
14.08.2017 02:00:00 11,4 9,7 - 0,0
14.08.2017 01:00:00 11,3 9,2 - 0,0
14.08.2017 00:00:00 11,5 9,4 - 0,0
13.08.2017 23:00:00 12,4 9,7 - 0,0
13.08.2017 22:00:00 12,1 8,1 - 0,0
13.08.2017 21:00:00 13,6 8,8 - 0,0
13.08.2017 20:00:00 15,0 10,4 - 0,0
13.08.2017 19:00:00 15,4 9,9 - 0,0
13.08.2017 18:00:00 16,5 9,4 - 0,0
13.08.2017 17:00:00 17,4 8,2 - 0,0
13.08.2017 16:00:00 15,8 9,3 - 0,0
13.08.2017 15:00:00 16,1 8,7 - 0,0
13.08.2017 14:00:00 18,1 5,5 - 0,0
13.08.2017 13:00:00 18,1 8,0 - 0,0
13.08.2017 12:00:00 17,3 8,2 - 0,0
13.08.2017 11:00:00 16,4 9,5 - 0,0
13.08.2017 10:00:00 14,6 8,1 - 0,0
13.08.2017 09:00:00 13,3 8,0 - 0,0
13.08.2017 08:00:00 12,1 8,1 - 0,0
13.08.2017 07:00:00 9,6 7,4 - 0,0
13.08.2017 06:00:00 9,1 6,2 - 0,0
13.08.2017 05:00:00 9,6 7,1 - 0,0
13.08.2017 04:00:00 9,9 7,5 - 0,0
13.08.2017 03:00:00 10,8 7,9 - 0,0
13.08.2017 02:00:00 11,3 9,3 - 0,0
13.08.2017 01:00:00 11,8 9,7 - 0,0
13.08.2017 00:00:00 11,6 10,8 - 0,0
12.08.2017 23:00:00 11,8 11,3 - 0,0
12.08.2017 22:00:00 11,8 11,1 - 0,8
12.08.2017 21:00:00 12,6 10,5 - 0,0
12.08.2017 20:00:00 13,4 10,7 - 0,0
12.08.2017 19:00:00 13,8 9,8 - 0,0
12.08.2017 18:00:00 15,0 10,4 - 0,0
12.08.2017 17:00:00 15,9 10,3 - 0,0
12.08.2017 16:00:00 16,4 10,3 - 0,0
12.08.2017 15:00:00 16,0 10,4 - 0,0
12.08.2017 14:00:00 15,9 11,2 - 0,0
12.08.2017 13:00:00 14,2 12,2 - 0,2
12.08.2017 12:00:00 12,6 11,9 - 0,2
12.08.2017 11:00:00 12,4 11,8 - 0,2
12.08.2017 10:00:00 12,3 11,8 45 0,4
12.08.2017 09:00:00 13,9 12,3 - 0,2
12.08.2017 08:00:00 13,9 11,4 - 0,0
12.08.2017 07:00:00 13,8 11,0 - 0,0
12.08.2017 06:00:00 13,4 10,7 - 0,0
12.08.2017 05:00:00 13,2 10,5 - 0,0
12.08.2017 04:00:00 13,1 10,1 - 0,0
12.08.2017 03:00:00 12,9 10,0 - 0,0
12.08.2017 02:00:00 13,2 10,0 - 0,0
12.08.2017 01:00:00 13,2 10,5 - 0,0
12.08.2017 00:00:00 13,7 10,8 - 0,0
11.08.2017 23:00:00 14,4 10,9 - 0,0
11.08.2017 22:00:00 15,5 12,5 - 0,0
11.08.2017 21:00:00 16,4 13,9 - 0,0
11.08.2017 20:00:00 17,8 14,9 - 0,0
11.08.2017 19:00:00 17,6 15,0 - 0,0
11.08.2017 18:00:00 17,9 14,3 - 0,0
11.08.2017 17:00:00 20,4 14,4 - 0,0
11.08.2017 16:00:00 18,6 14,4 - 0,0
11.08.2017 15:00:00 18,9 14,4 - 0,0
11.08.2017 14:00:00 18,1 13,6 - 0,0
11.08.2017 13:00:00 16,8 13,7 - 0,0
11.08.2017 12:00:00 15,5 13,0 - 0,0
11.08.2017 11:00:00 14,8 12,4 - 0,2
11.08.2017 10:00:00 14,8 11,5 17 0,0
11.08.2017 09:00:00 14,3 11,7 - 0,0
11.08.2017 08:00:00 13,5 11,0 - 0,0

tt = temperature
td = dewpoint
vv = visibility
rr = precipitation

Next stations